createdAt,value
2022-10-08T00:00:25.197Z,26.80
2022-10-08T00:04:06.906Z,24.10
2022-10-08T00:07:33.817Z,29.40
2022-10-08T00:11:03.373Z,34.60
2022-10-08T00:14:30.144Z,30.00
2022-10-08T00:17:57.125Z,33.40
2022-10-08T00:21:26.130Z,34.50
2022-10-08T00:24:55.785Z,37.60
2022-10-08T00:28:23.109Z,32.30
2022-10-08T00:31:51.932Z,30.40
2022-10-08T00:35:19.557Z,32.30
2022-10-08T00:38:46.483Z,37.30
2022-10-08T00:42:14.722Z,37.50
2022-10-08T00:45:43.437Z,35.30
2022-10-08T00:49:20.331Z,34.90
2022-10-08T00:52:50.811Z,32.40
2022-10-08T00:56:17.481Z,34.70
2022-10-08T00:59:44.552Z,32.60
2022-10-08T01:03:12.178Z,31.80
2022-10-08T01:06:47.755Z,30.80
2022-10-08T01:10:26.287Z,28.10
2022-10-08T01:14:05.930Z,26.40
2022-10-08T01:17:45.627Z,25.60
2022-10-08T01:21:17.652Z,28.30
2022-10-08T01:25:05.999Z,28.00
2022-10-08T01:28:36.770Z,32.50
2022-10-08T01:32:06.041Z,29.90
2022-10-08T01:35:37.982Z,26.30
2022-10-08T01:39:10.357Z,31.20
2022-10-08T01:42:40.587Z,30.40
2022-10-08T01:46:12.739Z,36.90
2022-10-08T01:49:44.101Z,36.80
2022-10-08T01:53:15.105Z,33.00
2022-10-08T01:56:44.829Z,37.80
2022-10-08T02:00:16.644Z,40.50
2022-10-08T02:04:03.652Z,42.20
2022-10-08T02:07:33.165Z,37.70
2022-10-08T02:10:59.871Z,35.70
2022-10-08T02:14:29.090Z,34.20
2022-10-08T02:18:06.463Z,32.00
2022-10-08T02:21:35.285Z,38.10
2022-10-08T02:25:08.423Z,32.90
2022-10-08T02:28:41.291Z,36.00
2022-10-08T02:32:14.822Z,33.10
2022-10-08T02:35:46.115Z,32.80
2022-10-08T02:39:15.548Z,38.50
2022-10-08T02:42:46.210Z,33.50
2022-10-08T02:46:17.469Z,35.30
2022-10-08T02:49:50.664Z,36.10
2022-10-08T02:53:18.958Z,32.80
2022-10-08T02:56:52.874Z,30.10
2022-10-08T03:00:20.312Z,34.10
2022-10-08T03:03:53.859Z,37.90
2022-10-08T03:07:23.237Z,33.00
2022-10-08T03:10:50.403Z,30.30
2022-10-08T03:14:20.488Z,32.50
2022-10-08T03:17:50.315Z,35.10
2022-10-08T03:21:18.228Z,34.80
2022-10-08T03:24:44.976Z,35.60
2022-10-08T03:28:11.863Z,29.50
2022-10-08T03:31:38.709Z,39.30
2022-10-08T03:35:05.574Z,35.00
2022-10-08T03:38:34.992Z,37.10
2022-10-08T03:42:01.731Z,35.50
2022-10-08T03:45:28.352Z,35.30
2022-10-08T03:48:54.938Z,34.60
2022-10-08T03:52:21.756Z,34.80
2022-10-08T03:55:48.317Z,31.30
2022-10-08T03:59:15.056Z,36.40
2022-10-08T04:02:42.035Z,36.40
2022-10-08T04:06:09.806Z,33.80
2022-10-08T04:09:36.667Z,32.60
2022-10-08T04:13:04.815Z,37.40
2022-10-08T04:16:31.620Z,32.70
2022-10-08T04:19:58.777Z,31.80
2022-10-08T04:23:25.321Z,30.00
2022-10-08T04:27:02.706Z,36.20
2022-10-08T04:30:31.453Z,36.60
2022-10-08T04:33:58.236Z,40.70
2022-10-08T04:37:24.758Z,37.80
2022-10-08T04:41:02.407Z,37.70
2022-10-08T04:44:29.159Z,39.70
2022-10-08T04:47:55.594Z,40.20
2022-10-08T04:51:24.616Z,35.90
2022-10-08T04:54:51.795Z,39.70
2022-10-08T04:58:18.298Z,43.60
2022-10-08T05:01:45.037Z,30.70
2022-10-08T05:05:12.617Z,30.40
2022-10-08T05:08:42.137Z,30.20
2022-10-08T05:12:09.117Z,28.90
2022-10-08T05:15:37.491Z,32.30
2022-10-08T05:19:04.912Z,37.60
2022-10-08T05:22:31.821Z,36.10
2022-10-08T05:25:58.564Z,30.90
2022-10-08T05:29:25.073Z,36.90
2022-10-08T05:32:51.759Z,33.30
2022-10-08T05:36:22.290Z,31.70
2022-10-08T05:39:48.770Z,29.30
2022-10-08T05:43:15.308Z,33.00
2022-10-08T05:46:42.772Z,32.70
2022-10-08T05:50:11.389Z,34.00
2022-10-08T05:53:41.393Z,33.80
2022-10-08T05:57:07.975Z,34.60
2022-10-08T06:00:34.334Z,30.70
2022-10-08T06:04:08.537Z,30.90
2022-10-08T06:07:36.060Z,33.20
2022-10-08T06:11:03.127Z,31.50
2022-10-08T06:14:29.866Z,34.60
2022-10-08T06:17:57.583Z,34.00
2022-10-08T06:21:26.430Z,33.30
2022-10-08T06:24:53.174Z,30.10
2022-10-08T06:28:20.026Z,34.90
2022-10-08T06:31:47.082Z,35.70
2022-10-08T06:35:14.342Z,33.80
2022-10-08T06:38:41.077Z,32.50
2022-10-08T06:42:08.622Z,35.90
2022-10-08T06:45:40.947Z,33.70
2022-10-08T06:49:08.394Z,41.50
2022-10-08T06:52:35.164Z,34.90
2022-10-08T06:56:03.417Z,37.20
2022-10-08T06:59:30.121Z,32.20
2022-10-08T07:02:57.519Z,34.80
2022-10-08T07:06:25.883Z,30.10
2022-10-08T07:09:52.313Z,36.70
2022-10-08T07:13:18.898Z,34.70
2022-10-08T07:16:46.033Z,31.60
2022-10-08T07:20:13.194Z,26.60
2022-10-08T07:23:42.602Z,31.10
2022-10-08T07:27:10.814Z,32.50
2022-10-08T07:30:39.446Z,26.80
2022-10-08T07:34:08.411Z,25.70
2022-10-08T07:37:35.294Z,33.20
2022-10-08T07:41:02.278Z,25.60
2022-10-08T07:44:28.932Z,29.60
2022-10-08T07:47:55.795Z,28.70
2022-10-08T07:51:23.398Z,31.00
2022-10-08T07:54:50.356Z,33.70
2022-10-08T07:58:17.245Z,29.90
2022-10-08T08:01:44.520Z,31.80
2022-10-08T08:05:12.598Z,28.00
2022-10-08T08:08:40.670Z,28.00
2022-10-08T08:12:07.323Z,31.70
2022-10-08T08:15:34.420Z,30.00
2022-10-08T08:19:03.051Z,24.30
2022-10-08T08:22:30.642Z,29.50
2022-10-08T08:25:57.592Z,29.80
2022-10-08T08:29:25.371Z,23.80
2022-10-08T08:32:55.167Z,28.00
2022-10-08T08:36:25.874Z,21.20
2022-10-08T08:39:52.784Z,25.50
2022-10-08T08:43:19.858Z,28.90
2022-10-08T08:46:53.514Z,25.80
2022-10-08T08:50:26.292Z,23.80
2022-10-08T08:53:53.824Z,23.90
2022-10-08T08:57:38.148Z,24.00
2022-10-08T09:01:15.494Z,25.60
2022-10-08T09:04:46.333Z,25.40
2022-10-08T09:08:22.369Z,26.50
2022-10-08T09:11:49.326Z,23.60
2022-10-08T09:15:26.952Z,29.30
2022-10-08T09:18:54.883Z,22.70
2022-10-08T09:22:27.555Z,27.60
2022-10-08T09:25:58.960Z,25.60
2022-10-08T09:29:37.779Z,22.50
2022-10-08T09:33:18.653Z,23.60
2022-10-08T09:36:48.267Z,20.90
2022-10-08T09:40:26.773Z,21.80
2022-10-08T09:44:16.238Z,19.70
2022-10-08T09:47:43.582Z,20.30
2022-10-08T09:51:18.962Z,19.30
2022-10-08T09:54:50.328Z,20.60
2022-10-08T09:58:20.654Z,18.80
2022-10-08T10:01:49.931Z,20.10
2022-10-08T10:05:27.273Z,18.00
2022-10-08T10:09:03.659Z,23.00
2022-10-08T10:12:38.066Z,17.10
2022-10-08T10:16:10.180Z,16.40
2022-10-08T10:19:43.479Z,16.50
2022-10-08T10:23:18.010Z,17.60
2022-10-08T10:26:47.471Z,25.00
2022-10-08T10:30:21.206Z,20.10
2022-10-08T10:33:58.950Z,19.60
2022-10-08T10:37:35.433Z,16.60
2022-10-08T10:41:13.093Z,20.20
2022-10-08T10:44:53.454Z,19.60
2022-10-08T10:48:20.032Z,16.10
2022-10-08T10:52:07.373Z,16.70
2022-10-08T10:55:40.215Z,17.30
2022-10-08T10:59:36.032Z,15.40
2022-10-08T11:03:12.064Z,19.40
2022-10-08T11:07:02.974Z,17.50
2022-10-08T11:10:41.847Z,20.60
2022-10-08T11:14:21.319Z,17.40
2022-10-08T11:18:12.170Z,12.50
2022-10-08T11:21:49.672Z,17.60
2022-10-08T11:25:44.673Z,16.30
2022-10-08T11:29:30.159Z,18.60
2022-10-08T11:33:12.883Z,16.20
2022-10-08T11:36:48.893Z,15.50
2022-10-08T11:40:27.167Z,20.50
2022-10-08T11:44:00.909Z,17.00
2022-10-08T11:47:53.843Z,16.20
2022-10-08T11:51:41.251Z,15.40
2022-10-08T11:55:19.134Z,13.20
2022-10-08T11:58:54.596Z,13.10
2022-10-08T12:02:30.110Z,12.00
2022-10-08T12:05:59.096Z,16.70
2022-10-08T12:09:27.732Z,13.10
2022-10-08T12:13:24.425Z,17.20
2022-10-08T12:17:11.913Z,13.80
2022-10-08T12:20:41.629Z,17.50
2022-10-08T12:24:50.354Z,10.90
2022-10-08T12:28:52.131Z,14.40
2022-10-08T12:32:22.002Z,10.60
2022-10-08T12:36:00.499Z,11.40
2022-10-08T12:39:40.985Z,18.30
2022-10-08T12:43:23.280Z,8.80
2022-10-08T12:47:01.057Z,14.30
2022-10-08T12:50:49.812Z,14.30
2022-10-08T12:54:26.404Z,15.50
2022-10-08T12:57:57.058Z,14.70
2022-10-08T13:01:24.897Z,14.20
2022-10-08T13:04:53.869Z,16.30
2022-10-08T13:08:40.174Z,18.60
2022-10-08T13:12:11.169Z,14.60
2022-10-08T13:15:38.741Z,20.40
2022-10-08T13:19:23.814Z,13.80
2022-10-08T13:22:52.711Z,19.60
2022-10-08T13:26:43.263Z,16.60
2022-10-08T13:30:29.336Z,14.70
2022-10-08T13:34:04.054Z,17.00
2022-10-08T13:37:37.392Z,13.60
2022-10-08T13:41:06.617Z,14.30
2022-10-08T13:44:35.358Z,11.70
2022-10-08T13:48:02.302Z,14.70
2022-10-08T13:51:29.975Z,19.40
2022-10-08T13:55:02.666Z,23.50
2022-10-08T13:58:33.460Z,15.70
2022-10-08T14:02:00.807Z,12.90
2022-10-08T14:05:31.838Z,9.90
2022-10-08T14:08:59.288Z,14.20
2022-10-08T14:12:30.342Z,13.70
2022-10-08T14:15:57.173Z,14.40
2022-10-08T14:19:24.067Z,14.90
2022-10-08T14:22:51.985Z,14.50
2022-10-08T14:26:21.920Z,16.30
2022-10-08T14:29:49.087Z,13.00
2022-10-08T14:33:16.050Z,17.90
2022-10-08T14:36:43.876Z,18.00
2022-10-08T14:40:19.873Z,10.90
2022-10-08T14:43:49.303Z,9.70
2022-10-08T14:47:16.370Z,13.80
2022-10-08T14:50:43.889Z,13.30
2022-10-08T14:54:12.641Z,8.60
2022-10-08T14:57:41.922Z,13.50
2022-10-08T15:01:09.409Z,12.90
2022-10-08T15:04:38.598Z,25.00
2022-10-08T15:08:05.516Z,39.90
2022-10-08T15:11:32.603Z,32.00
2022-10-08T15:14:59.815Z,21.60
2022-10-08T15:18:31.208Z,15.40
2022-10-08T15:22:03.307Z,16.30
2022-10-08T15:25:30.047Z,15.90
2022-10-08T15:28:57.367Z,17.30
2022-10-08T15:32:29.646Z,18.50
2022-10-08T15:35:59.008Z,18.00
2022-10-08T15:39:26.754Z,17.00
2022-10-08T15:42:54.396Z,14.30
2022-10-08T15:46:26.306Z,19.30
2022-10-08T15:49:53.280Z,17.20
2022-10-08T15:53:20.251Z,21.50
2022-10-08T15:56:47.419Z,26.30
2022-10-08T16:00:16.377Z,17.20
2022-10-08T16:03:45.027Z,13.00
2022-10-08T16:07:12.383Z,16.30
2022-10-08T16:10:39.695Z,19.90
2022-10-08T16:14:08.956Z,16.20
2022-10-08T16:17:35.900Z,12.10
2022-10-08T16:21:05.727Z,12.40
2022-10-08T16:24:32.673Z,11.80
2022-10-08T16:28:02.504Z,16.00
2022-10-08T16:31:32.606Z,11.30
2022-10-08T16:34:59.149Z,9.00
2022-10-08T16:38:26.666Z,9.10
2022-10-08T16:41:54.191Z,13.20
2022-10-08T16:45:21.447Z,14.50
2022-10-08T16:48:53.771Z,17.40
2022-10-08T16:52:20.850Z,11.20
2022-10-08T16:55:47.735Z,10.30
2022-10-08T16:59:19.345Z,10.80
2022-10-08T17:02:46.838Z,13.60
2022-10-08T17:06:16.730Z,15.50
2022-10-08T17:09:44.898Z,12.30
2022-10-08T17:13:11.757Z,6.60
2022-10-08T17:16:39.900Z,11.40
2022-10-08T17:20:08.186Z,9.90
2022-10-08T17:23:38.473Z,8.60
2022-10-08T17:27:05.925Z,13.10
2022-10-08T17:30:39.746Z,14.10
2022-10-08T17:34:07.712Z,13.00
2022-10-08T17:37:35.411Z,10.80
2022-10-08T17:41:02.576Z,14.90
2022-10-08T17:44:34.295Z,12.30
2022-10-08T17:48:05.445Z,12.30
2022-10-08T17:51:35.043Z,15.80
2022-10-08T17:55:02.638Z,11.30
2022-10-08T17:58:32.190Z,9.90
2022-10-08T18:02:02.670Z,7.90
2022-10-08T18:05:30.550Z,13.70
2022-10-08T18:09:02.428Z,10.40
2022-10-08T18:12:32.727Z,15.30
2022-10-08T18:16:03.925Z,11.30
2022-10-08T18:19:30.530Z,9.00
2022-10-08T18:22:57.643Z,13.70
2022-10-08T18:26:27.118Z,12.40
2022-10-08T18:29:56.668Z,13.10
2022-10-08T18:33:24.852Z,11.40
2022-10-08T18:36:53.097Z,15.20
2022-10-08T18:40:22.595Z,17.90
2022-10-08T18:43:50.926Z,14.70
2022-10-08T18:47:17.434Z,15.20
2022-10-08T18:50:49.199Z,12.70
2022-10-08T18:54:16.085Z,13.10
2022-10-08T18:57:56.047Z,14.50
2022-10-08T19:01:25.701Z,16.20
2022-10-08T19:04:53.431Z,15.00
2022-10-08T19:08:20.440Z,21.80
2022-10-08T19:11:49.288Z,28.90
2022-10-08T19:15:15.963Z,24.10
2022-10-08T19:18:43.939Z,19.60
2022-10-08T19:22:13.153Z,16.70
2022-10-08T19:25:40.318Z,17.60
2022-10-08T19:29:07.618Z,15.60
2022-10-08T19:32:34.691Z,18.20
2022-10-08T19:36:05.046Z,16.60
2022-10-08T19:39:34.177Z,19.30
2022-10-08T19:43:03.579Z,18.00
2022-10-08T19:46:31.166Z,19.00
2022-10-08T19:49:58.639Z,17.40
2022-10-08T19:53:25.257Z,15.60
2022-10-08T19:56:51.872Z,15.40
2022-10-08T20:00:19.791Z,17.40
2022-10-08T20:03:48.490Z,16.00
2022-10-08T20:07:16.038Z,16.60
2022-10-08T20:10:44.035Z,18.00
2022-10-08T20:14:10.971Z,14.90
2022-10-08T20:17:38.023Z,18.70
2022-10-08T20:21:07.280Z,15.00
2022-10-08T20:24:34.365Z,16.70
2022-10-08T20:28:01.182Z,16.80
2022-10-08T20:31:30.151Z,16.40
2022-10-08T20:34:58.316Z,13.80
2022-10-08T20:38:27.709Z,15.20
2022-10-08T20:41:54.657Z,13.50
2022-10-08T20:45:22.320Z,13.10
2022-10-08T20:48:50.024Z,15.50
2022-10-08T20:52:18.585Z,13.30
2022-10-08T20:55:45.532Z,13.40
2022-10-08T20:59:16.183Z,14.90
2022-10-08T21:02:44.992Z,12.10
2022-10-08T21:06:14.142Z,14.40
2022-10-08T21:09:43.651Z,10.90
2022-10-08T21:13:14.098Z,11.20
2022-10-08T21:16:42.988Z,13.20
2022-10-08T21:20:13.690Z,16.40
2022-10-08T21:23:42.012Z,12.10
2022-10-08T21:27:11.162Z,12.60
2022-10-08T21:30:38.893Z,12.70
2022-10-08T21:34:08.570Z,14.60
2022-10-08T21:37:36.424Z,10.40
2022-10-08T21:41:14.864Z,16.00
2022-10-08T21:49:04.716Z,11.80
2022-10-08T21:52:34.259Z,10.90
2022-10-08T21:56:05.022Z,8.80
2022-10-08T21:59:32.281Z,8.30
2022-10-08T22:02:59.064Z,6.60
2022-10-08T22:06:27.111Z,12.00
2022-10-08T22:10:01.892Z,7.00
2022-10-08T22:13:29.041Z,10.80
2022-10-08T22:16:57.474Z,9.90
2022-10-08T22:20:24.189Z,8.60
2022-10-08T22:23:53.288Z,7.60
2022-10-08T22:27:20.243Z,5.30
2022-10-08T22:30:47.083Z,5.70
2022-10-08T22:34:14.603Z,4.50
2022-10-08T22:37:42.663Z,7.40
2022-10-08T22:41:14.321Z,6.80
2022-10-08T22:44:44.670Z,5.90
2022-10-08T22:48:13.997Z,4.60
2022-10-08T22:51:46.412Z,5.80
2022-10-08T22:55:18.380Z,5.40
2022-10-08T22:59:00.909Z,5.30
2022-10-08T23:02:29.028Z,5.90
2022-10-08T23:06:08.217Z,6.70
2022-10-08T23:09:34.834Z,6.20
2022-10-08T23:13:04.478Z,8.30
2022-10-08T23:16:38.411Z,4.90
2022-10-08T23:20:06.001Z,8.00
2022-10-08T23:23:33.795Z,7.40
2022-10-08T23:27:00.977Z,5.20
2022-10-08T23:30:42.561Z,6.00
2022-10-08T23:34:10.366Z,8.90
2022-10-08T23:37:37.635Z,7.80
2022-10-08T23:41:06.539Z,7.10
2022-10-08T23:44:33.708Z,5.90
2022-10-08T23:48:01.616Z,5.70
2022-10-08T23:51:32.007Z,4.60
2022-10-08T23:54:59.046Z,3.10
2022-10-08T23:58:29.232Z,5.20
